createdAt,value
2023-12-30T00:07:01.947Z,9.2
2023-12-30T00:17:02.083Z,9.2
2023-12-30T00:27:02.265Z,9.1
2023-12-30T00:37:02.580Z,9.1
2023-12-30T00:47:02.716Z,9
2023-12-30T01:07:03.137Z,8.9
2023-12-30T01:17:03.288Z,9
2023-12-30T01:27:09.606Z,8.7
2023-12-30T01:37:03.756Z,8.6
2023-12-30T01:47:03.897Z,8.7
2023-12-30T01:57:04.093Z,8.6
2023-12-30T02:07:04.324Z,8.5
2023-12-30T02:17:04.543Z,8.4
2023-12-30T02:27:04.766Z,8.3
2023-12-30T02:57:05.332Z,8.1
2023-12-30T03:07:05.509Z,8.1
2023-12-30T03:17:05.731Z,8.3
2023-12-30T03:27:05.929Z,8.3
2023-12-30T03:37:06.146Z,8.3
2023-12-30T03:47:06.354Z,8.2
2023-12-30T03:57:06.578Z,8.2
2023-12-30T04:07:06.788Z,8.2
2023-12-30T04:17:06.944Z,8.1
2023-12-30T04:27:07.143Z,8
2023-12-30T04:37:07.455Z,7.8
2023-12-30T04:47:13.678Z,7.6
2023-12-30T04:57:07.813Z,7.5
2023-12-30T05:07:07.983Z,7.4
2023-12-30T05:17:08.184Z,7.3
2023-12-30T05:27:08.387Z,7.4
2023-12-30T05:37:08.602Z,7.4
2023-12-30T05:47:08.762Z,7.5
2023-12-30T05:57:08.976Z,7.5
2023-12-30T06:07:09.187Z,7.7
2023-12-30T06:17:09.385Z,7.7
2023-12-30T06:27:09.617Z,7.6
2023-12-30T06:37:09.818Z,7.6
2023-12-30T06:47:10.010Z,7.6
2023-12-30T07:17:10.641Z,7.5
2023-12-30T07:27:16.912Z,7.6
2023-12-30T07:37:11.049Z,7.6
2023-12-30T07:47:11.222Z,7.8
2023-12-30T07:57:17.539Z,7.8
2023-12-30T08:07:11.639Z,7.9
2023-12-30T08:17:11.860Z,8
2023-12-30T08:37:12.267Z,8
2023-12-30T08:47:12.554Z,8
2023-12-30T08:57:12.636Z,8
2023-12-30T09:07:12.879Z,8.1
2023-12-30T09:17:13.127Z,8.2
2023-12-30T09:27:13.258Z,8.3
2023-12-30T09:37:13.457Z,8.4
2023-12-30T09:47:13.668Z,8.5
2023-12-30T09:57:13.848Z,8.6
2023-12-30T10:07:14.090Z,8.6
2023-12-30T10:17:14.304Z,8.7
2023-12-30T10:27:14.464Z,8.8
2023-12-30T10:37:14.794Z,8.8
2023-12-30T10:47:14.892Z,8.8
2023-12-30T10:57:15.068Z,8.8
2023-12-30T11:07:15.287Z,9
2023-12-30T11:37:15.908Z,9.1
2023-12-30T11:47:16.085Z,9.3
2023-12-30T11:57:16.285Z,9.3
2023-12-30T12:07:16.504Z,9.4
2023-12-30T12:17:16.695Z,9.5
2023-12-30T12:27:16.917Z,9.6
2023-12-30T12:37:17.116Z,9.6
2023-12-30T12:57:17.506Z,9.8
2023-12-30T13:07:17.740Z,9.9
2023-12-30T13:17:17.902Z,10
2023-12-30T13:27:18.149Z,10.1
2023-12-30T13:37:18.340Z,10.2
2023-12-30T14:07:19.048Z,10.2
2023-12-30T14:17:19.342Z,10.3
2023-12-30T14:27:19.316Z,10.4
2023-12-30T14:37:19.578Z,10.4
2023-12-30T14:47:19.729Z,10.4
2023-12-30T15:07:20.170Z,10.3
2023-12-30T15:17:20.330Z,10.3
2023-12-30T15:27:20.551Z,10.1
2023-12-30T15:37:20.781Z,10
2023-12-30T15:47:20.978Z,9.9
2023-12-30T16:07:21.359Z,9.7
2023-12-30T16:17:21.560Z,9.7
2023-12-30T16:27:21.729Z,9.6
2023-12-30T16:37:21.997Z,9.4
2023-12-30T16:47:22.167Z,9.3
2023-12-30T16:57:22.351Z,9.1
2023-12-30T17:07:22.551Z,9.1
2023-12-30T17:17:22.754Z,9.1
2023-12-30T17:27:22.961Z,9.1
2023-12-30T17:37:23.240Z,9.1
2023-12-30T17:47:23.354Z,9.1
2023-12-30T17:57:23.568Z,9.2
2023-12-30T18:07:23.808Z,9.4
2023-12-30T18:17:23.969Z,9.5
2023-12-30T18:27:24.154Z,9.5
2023-12-30T18:37:24.411Z,9.5
2023-12-30T18:47:24.610Z,9.5
2023-12-30T18:57:24.773Z,9.5
2023-12-30T19:07:25.022Z,9.5
2023-12-30T19:17:25.238Z,9.5
2023-12-30T19:27:25.379Z,9.5
2023-12-30T19:47:25.829Z,9.4
2023-12-30T19:57:25.993Z,9.4
2023-12-30T20:17:26.397Z,9.4
2023-12-30T20:27:26.597Z,9.4
2023-12-30T20:37:26.816Z,9.3
2023-12-30T20:47:27.059Z,9.2
2023-12-30T21:07:27.491Z,9.1
2023-12-30T21:17:27.607Z,9.1
2023-12-30T21:37:32.497Z,9.2
2023-12-30T21:47:28.260Z,9.3
2023-12-30T21:57:28.424Z,9.4
2023-12-30T22:07:28.621Z,9.4
2023-12-30T22:17:28.886Z,9.4
2023-12-30T22:57:29.662Z,9.6
2023-12-30T23:07:29.843Z,9.7
2023-12-30T23:17:30.089Z,9.7
2023-12-30T23:27:30.254Z,9.8
2023-12-30T23:37:30.445Z,9.7
2023-12-30T23:47:30.650Z,9.7
2023-12-30T23:57:30.843Z,9.7
